Time;durP1;ratioP1;P1;durP2;ratioP2;P2;SDS_P1;SDS_P2;PMS_P1;PMS_P2;Temp;Humidity;BMP_temperature;BMP_pressure;BME280_temperature;BME280_humidity;BME280_pressure;Samples;Min_cycle;Max_cycle;Signal;HPM_P1;HPM_P2
2022/03/18 00:02:17;;;;;;;18.90;8.30;;;;;;;;;;6243389;28;20050;-66
2022/03/18 00:05:18;;;;;;;21.03;11.27;;;;;;;;;;6225721;28;20025;-65
2022/03/18 00:08:18;;;;;;;24.42;10.70;;;;;;;;;;6243104;28;20472;-65
2022/03/18 00:11:18;;;;;;;23.92;9.88;;;;;;;;;;6246830;28;20045;-65
2022/03/18 00:14:21;;;;;;;19.45;8.85;;;;;;;;;;6247562;28;20112;-66
2022/03/18 00:17:22;;;;;;;18.52;8.80;;;;;;;;;;6248217;28;20080;-65
2022/03/18 00:20:22;;;;;;;17.70;8.48;;;;;;;;;;6247821;28;20544;-65
2022/03/18 00:23:22;;;;;;;19.67;9.73;;;;;;;;;;6248132;28;20017;-65
2022/03/18 00:26:23;;;;;;;20.35;8.73;;;;;;;;;;6247718;28;20037;-66
2022/03/18 00:29:23;;;;;;;19.92;8.65;;;;;;;;;;6247956;28;20033;-66
2022/03/18 00:32:24;;;;;;;18.33;9.07;;;;;;;;;;6247709;28;20138;-66
2022/03/18 00:35:24;;;;;;;20.00;9.88;;;;;;;;;;6247301;28;20017;-66
2022/03/18 00:38:24;;;;;;;15.77;7.43;;;;;;;;;;6247185;28;20051;-66
2022/03/18 00:41:25;;;;;;;20.52;8.77;;;;;;;;;;6247792;28;20017;-65
2022/03/18 00:44:25;;;;;;;17.73;8.55;;;;;;;;;;6247109;28;20029;-65
2022/03/18 00:54:03;;;;;;;19.02;10.75;;;;;;;;;;6246950;28;20574;-65
2022/03/18 00:57:04;;;;;;;16.58;8.05;;;;;;;;;;6247707;28;20032;-65
2022/03/18 01:00:07;;;;;;;22.33;10.27;;;;;;;;;;6247534;28;20045;-65
2022/03/18 01:03:07;;;;;;;23.70;9.93;;;;;;;;;;6247099;28;20026;-66
2022/03/18 01:06:08;;;;;;;22.20;9.80;;;;;;;;;;6246941;28;20091;-65
2022/03/18 01:09:08;;;;;;;20.08;9.82;;;;;;;;;;6246864;28;20029;-66
2022/03/18 01:12:09;;;;;;;22.05;12.30;;;;;;;;;;6247896;28;20034;-66
2022/03/18 01:15:10;;;;;;;30.88;11.60;;;;;;;;;;6224173;28;20433;-65
2022/03/18 01:18:10;;;;;;;24.38;11.27;;;;;;;;;;6224964;28;20026;-65
2022/03/18 01:21:10;;;;;;;22.65;10.05;;;;;;;;;;6244985;28;20544;-65
2022/03/18 01:24:11;;;;;;;19.00;10.20;;;;;;;;;;6222222;28;20022;-65
2022/03/18 01:27:11;;;;;;;21.50;11.45;;;;;;;;;;6224202;28;20018;-65
2022/03/18 01:30:13;;;;;;;20.80;11.32;;;;;;;;;;6225538;28;20104;-65
2022/03/18 01:33:14;;;;;;;29.55;10.80;;;;;;;;;;6246768;28;20032;-65
2022/03/18 01:36:15;;;;;;;23.13;11.50;;;;;;;;;;6245809;28;20025;-65
2022/03/18 01:39:15;;;;;;;24.80;12.23;;;;;;;;;;6246447;28;20029;-65
2022/03/18 01:42:16;;;;;;;24.98;10.48;;;;;;;;;;6245404;28;20100;-65
2022/03/18 01:45:16;;;;;;;22.98;10.65;;;;;;;;;;6244887;28;20018;-65
2022/03/18 01:48:17;;;;;;;20.65;10.20;;;;;;;;;;6242743;28;20025;-65
2022/03/18 01:51:17;;;;;;;19.17;10.75;;;;;;;;;;6243976;28;20520;-65
2022/03/18 01:57:37;;;;;;;20.17;10.75;;;;;;;;;;6247383;28;20038;-65
2022/03/18 02:00:37;;;;;;;24.73;12.77;;;;;;;;;;6246044;28;20105;-65
2022/03/18 02:03:37;;;;;;;20.77;11.45;;;;;;;;;;6245735;28;20031;-65
2022/03/18 02:06:38;;;;;;;23.88;11.45;;;;;;;;;;6245331;28;20091;-65
2022/03/18 02:09:39;;;;;;;25.45;13.75;;;;;;;;;;6227915;28;20029;-65
2022/03/18 02:12:41;;;;;;;26.00;13.40;;;;;;;;;;6237009;28;20072;-65
2022/03/18 02:15:41;;;;;;;32.08;13.45;;;;;;;;;;6244831;28;20040;-65
2022/03/18 02:18:41;;;;;;;32.15;13.88;;;;;;;;;;6243321;28;20033;-65
2022/03/18 02:21:41;;;;;;;30.02;13.15;;;;;;;;;;6243724;28;20500;-65
2022/03/18 02:24:42;;;;;;;30.08;13.23;;;;;;;;;;6244297;28;20026;-65
2022/03/18 02:27:53;;;;;;;27.93;14.47;;;;;;;;;;6245268;28;20024;-65
2022/03/18 02:30:54;;;;;;;24.33;13.32;;;;;;;;;;6245066;28;20523;-65
2022/03/18 02:33:54;;;;;;;28.48;12.43;;;;;;;;;;6223232;28;20017;-65
2022/03/18 02:36:54;;;;;;;29.80;13.20;;;;;;;;;;6244734;28;20420;-65
2022/03/18 02:39:55;;;;;;;27.63;13.88;;;;;;;;;;6225713;28;20025;-65
2022/03/18 02:42:55;;;;;;;21.15;11.35;;;;;;;;;;6226039;28;20052;-65
2022/03/18 02:45:55;;;;;;;33.90;13.65;;;;;;;;;;6244545;28;20025;-65
2022/03/18 02:48:56;;;;;;;20.67;10.52;;;;;;;;;;6244710;28;20092;-65
2022/03/18 02:51:57;;;;;;;25.48;10.88;;;;;;;;;;6239708;28;20083;-65
2022/03/18 02:54:57;;;;;;;20.52;10.00;;;;;;;;;;6243610;28;20253;-65
2022/03/18 02:57:57;;;;;;;30.30;11.50;;;;;;;;;;6245035;28;20026;-65
2022/03/18 03:00:57;;;;;;;17.00;10.85;;;;;;;;;;6244572;28;20024;-64
2022/03/18 03:03:59;;;;;;;24.95;11.30;;;;;;;;;;6244059;28;20088;-64
2022/03/18 03:10:18;;;;;;;21.75;10.80;;;;;;;;;;6243742;28;20489;-65
2022/03/18 03:13:18;;;;;;;25.10;11.88;;;;;;;;;;6245108;28;20024;-65
2022/03/18 03:16:21;;;;;;;21.90;11.60;;;;;;;;;;6243972;28;20021;-65
2022/03/18 03:19:21;;;;;;;22.00;10.05;;;;;;;;;;6243758;28;20293;-65
2022/03/18 03:22:22;;;;;;;21.30;11.05;;;;;;;;;;6236567;28;20014;-65
2022/03/18 03:25:22;;;;;;;21.58;12.07;;;;;;;;;;6234980;28;20456;-65
2022/03/18 03:28:22;;;;;;;24.05;11.85;;;;;;;;;;6237004;28;20038;-65
2022/03/18 03:31:22;;;;;;;25.98;12.35;;;;;;;;;;6244188;28;20021;-65
2022/03/18 03:34:23;;;;;;;23.52;11.25;;;;;;;;;;6227786;28;20029;-65
2022/03/18 03:37:26;;;;;;;21.45;10.65;;;;;;;;;;6218929;28;20110;-65
2022/03/18 03:40:26;;;;;;;24.75;13.02;;;;;;;;;;6239075;28;20021;-65
2022/03/18 03:43:26;;;;;;;21.05;10.88;;;;;;;;;;6243400;28;20072;-65
2022/03/18 03:46:27;;;;;;;23.40;11.50;;;;;;;;;;6242120;28;20071;-65
2022/03/18 03:49:27;;;;;;;24.08;12.73;;;;;;;;;;6243078;28;20029;-65
2022/03/18 03:52:27;;;;;;;25.52;12.73;;;;;;;;;;6242820;28;20136;-65
2022/03/18 03:55:27;;;;;;;23.10;11.98;;;;;;;;;;6232324;28;20024;-65
2022/03/18 03:58:28;;;;;;;18.25;10.05;;;;;;;;;;6236416;28;20061;-66
2022/03/18 04:01:28;;;;;;;24.75;10.77;;;;;;;;;;6233368;28;20021;-67
2022/03/18 04:04:28;;;;;;;26.75;13.07;;;;;;;;;;6243215;28;20031;-66
2022/03/18 04:07:29;;;;;;;25.92;11.10;;;;;;;;;;6242460;28;20407;-64
2022/03/18 04:10:29;;;;;;;22.75;12.73;;;;;;;;;;6241921;28;20025;-64
2022/03/18 04:13:29;;;;;;;25.00;10.65;;;;;;;;;;6243068;28;20029;-64
2022/03/18 04:16:29;;;;;;;20.38;11.98;;;;;;;;;;6225174;28;20168;-64
2022/03/18 04:19:30;;;;;;;25.38;12.95;;;;;;;;;;6243181;28;20052;-64
2022/03/18 04:22:31;;;;;;;25.20;11.05;;;;;;;;;;6242940;28;20036;-64
2022/03/18 04:25:31;;;;;;;22.15;11.57;;;;;;;;;;6242791;28;20028;-64
2022/03/18 04:28:31;;;;;;;24.55;11.55;;;;;;;;;;6242889;28;20168;-64
2022/03/18 04:31:32;;;;;;;23.90;11.40;;;;;;;;;;6242727;28;20021;-64
2022/03/18 04:34:32;;;;;;;24.48;11.43;;;;;;;;;;6230516;28;20075;-64
2022/03/18 04:37:32;;;;;;;23.08;11.27;;;;;;;;;;6218330;28;20022;-65
2022/03/18 04:40:33;;;;;;;26.65;12.30;;;;;;;;;;6229108;28;20025;-65
2022/03/18 04:43:33;;;;;;;25.55;11.77;;;;;;;;;;6242525;28;20017;-65
2022/03/18 04:46:33;;;;;;;26.55;11.82;;;;;;;;;;6242330;28;20513;-65
2022/03/18 04:49:34;;;;;;;24.08;11.43;;;;;;;;;;6242192;28;20029;-65
2022/03/18 04:52:34;;;;;;;23.67;11.13;;;;;;;;;;6242253;28;20034;-65
2022/03/18 04:55:34;;;;;;;24.60;11.27;;;;;;;;;;6242515;28;20104;-65
2022/03/18 04:58:34;;;;;;;21.88;12.13;;;;;;;;;;6248115;28;20431;-65
2022/03/18 05:01:35;;;;;;;26.30;11.85;;;;;;;;;;6247243;28;20682;-65
2022/03/18 05:04:35;;;;;;;29.00;10.80;;;;;;;;;;6247148;28;20025;-65
2022/03/18 05:07:38;;;;;;;27.90;13.38;;;;;;;;;;6246459;28;20125;-65
2022/03/18 05:10:38;;;;;;;20.98;10.35;;;;;;;;;;6247220;28;20049;-65
2022/03/18 05:13:39;;;;;;;28.75;13.80;;;;;;;;;;6234802;28;20026;-65
2022/03/18 05:16:42;;;;;;;27.58;13.10;;;;;;;;;;6237633;28;20022;-65
2022/03/18 05:19:42;;;;;;;26.88;12.00;;;;;;;;;;6222939;28;20034;-65
2022/03/18 05:22:44;;;;;;;24.88;11.52;;;;;;;;;;6238050;28;20025;-65
2022/03/18 05:25:44;;;;;;;22.13;11.80;;;;;;;;;;6245883;28;20025;-66
2022/03/18 05:28:46;;;;;;;18.92;11.05;;;;;;;;;;6246487;28;20093;-65
2022/03/18 05:31:46;;;;;;;20.17;10.48;;;;;;;;;;6246555;28;20408;-65
2022/03/18 05:34:47;;;;;;;21.73;10.52;;;;;;;;;;6244583;28;20108;-65
2022/03/18 05:37:47;;;;;;;21.98;11.35;;;;;;;;;;6245062;28;20029;-65
2022/03/18 05:40:47;;;;;;;23.60;11.45;;;;;;;;;;6246500;28;20450;-65
2022/03/18 05:43:47;;;;;;;24.52;11.90;;;;;;;;;;6245994;28;20060;-65
2022/03/18 05:46:48;;;;;;;27.05;12.82;;;;;;;;;;6224338;28;20029;-65
2022/03/18 05:49:48;;;;;;;24.77;12.90;;;;;;;;;;6224123;28;20088;-65
2022/03/18 05:52:48;;;;;;;31.08;13.32;;;;;;;;;;6222803;28;20073;-65
2022/03/18 05:59:08;;;;;;;29.33;11.15;;;;;;;;;;6222098;28;20026;-65
2022/03/18 06:02:08;;;;;;;22.40;10.85;;;;;;;;;;6238072;28;20065;-65
2022/03/18 06:05:09;;;;;;;28.40;12.90;;;;;;;;;;6240742;28;20025;-65
2022/03/18 06:14:47;;;;;;;21.92;12.00;;;;;;;;;;6227786;28;20034;-65
2022/03/18 06:17:51;;;;;;;23.83;12.10;;;;;;;;;;6218965;28;20761;-66
2022/03/18 06:20:55;;;;;;;33.40;13.48;;;;;;;;;;6221872;28;20033;-66
2022/03/18 06:23:55;;;;;;;24.83;12.32;;;;;;;;;;6241118;28;20017;-66
2022/03/18 06:26:56;;;;;;;29.25;12.95;;;;;;;;;;6243963;28;20022;-66
2022/03/18 06:29:56;;;;;;;30.23;12.27;;;;;;;;;;6244530;28;20600;-66
2022/03/18 06:32:56;;;;;;;24.50;11.70;;;;;;;;;;6243129;28;20041;-66
2022/03/18 06:35:56;;;;;;;20.83;11.38;;;;;;;;;;6231451;28;20640;-66
2022/03/18 06:38:57;;;;;;;19.60;11.07;;;;;;;;;;6238503;28;20116;-66
2022/03/18 06:41:57;;;;;;;22.55;12.23;;;;;;;;;;6236315;28;20509;-66
2022/03/18 06:44:58;;;;;;;22.13;11.55;;;;;;;;;;6243380;28;20496;-66
2022/03/18 06:47:58;;;;;;;24.83;10.27;;;;;;;;;;6243217;28;20057;-66
2022/03/18 06:50:59;;;;;;;23.35;12.80;;;;;;;;;;6234203;28;20018;-66
2022/03/18 06:53:59;;;;;;;25.15;11.32;;;;;;;;;;6230744;28;20044;-66
2022/03/18 06:57:00;;;;;;;25.48;11.88;;;;;;;;;;6232319;28;20021;-66
2022/03/18 07:00:00;;;;;;;23.80;12.85;;;;;;;;;;6239014;28;20017;-66
2022/03/18 07:03:00;;;;;;;30.20;11.10;;;;;;;;;;6234398;28;20021;-67
2022/03/18 07:06:01;;;;;;;23.80;12.75;;;;;;;;;;6231603;28;20026;-67
2022/03/18 07:09:01;;;;;;;19.02;10.70;;;;;;;;;;6232565;28;20132;-66
2022/03/18 07:12:01;;;;;;;22.92;11.57;;;;;;;;;;6239090;28;20079;-67
2022/03/18 07:15:01;;;;;;;25.13;11.77;;;;;;;;;;6236845;28;20029;-66
2022/03/18 07:18:03;;;;;;;25.92;12.50;;;;;;;;;;6235178;28;20037;-66
2022/03/18 07:21:04;;;;;;;25.00;11.50;;;;;;;;;;6231888;28;20018;-66
2022/03/18 07:24:04;;;;;;;21.27;11.60;;;;;;;;;;6226174;28;20546;-66
2022/03/18 07:27:04;;;;;;;28.27;12.00;;;;;;;;;;6228529;28;20127;-66
2022/03/18 07:30:05;;;;;;;26.45;12.05;;;;;;;;;;6239633;28;20053;-67
2022/03/18 07:33:05;;;;;;;23.35;12.88;;;;;;;;;;6234357;28;20381;-66
2022/03/18 07:36:06;;;;;;;25.13;11.48;;;;;;;;;;6232488;28;20033;-66
2022/03/18 07:39:06;;;;;;;22.95;11.05;;;;;;;;;;6235958;28;20385;-67
2022/03/18 07:42:07;;;;;;;21.15;12.18;;;;;;;;;;6239251;28;20024;-66
2022/03/18 07:45:08;;;;;;;18.50;10.45;;;;;;;;;;6238992;28;20014;-66
2022/03/18 07:48:08;;;;;;;23.55;11.05;;;;;;;;;;6241972;28;20025;-66
2022/03/18 07:51:09;;;;;;;21.52;10.85;;;;;;;;;;6242767;28;20444;-66
2022/03/18 07:54:09;;;;;;;17.08;10.82;;;;;;;;;;6242170;28;20037;-66
2022/03/18 07:57:09;;;;;;;18.45;11.13;;;;;;;;;;6238110;28;20531;-66
2022/03/18 08:00:11;;;;;;;20.58;12.05;;;;;;;;;;6242721;28;20020;-66
2022/03/18 08:03:11;;;;;;;;;;;;;;;;;;6237383;28;20262;-66
2022/03/18 08:06:12;;;;;;;18.88;10.45;;;;;;;;;;6240826;28;19924;-66
2022/03/18 08:09:12;;;;;;;22.05;10.40;;;;;;;;;;6239246;28;20036;-66
2022/03/18 08:12:13;;;;;;;17.40;9.95;;;;;;;;;;6235514;28;20045;-66
2022/03/18 08:15:14;;;;;;;19.35;10.68;;;;;;;;;;6223992;28;20021;-66
2022/03/18 08:18:15;;;;;;;20.30;9.45;;;;;;;;;;6229672;28;20600;-66
2022/03/18 08:21:15;;;;;;;20.65;9.38;;;;;;;;;;6233376;28;20432;-66
2022/03/18 08:24:16;;;;;;;18.52;8.60;;;;;;;;;;6234150;28;20032;-66
2022/03/18 08:27:16;;;;;;;17.90;9.20;;;;;;;;;;6230620;28;20481;-66
2022/03/18 08:30:17;;;;;;;18.42;10.77;;;;;;;;;;6212790;28;20079;-66
2022/03/18 08:33:19;;;;;;;16.02;9.60;;;;;;;;;;6231944;28;20036;-66
2022/03/18 08:36:19;;;;;;;20.00;10.75;;;;;;;;;;6219542;28;20032;-66
2022/03/18 08:39:20;;;;;;;21.40;9.80;;;;;;;;;;6239737;28;20096;-66
2022/03/18 08:42:20;;;;;;;18.25;9.45;;;;;;;;;;6245602;28;20032;-66
2022/03/18 08:45:21;;;;;;;14.73;8.48;;;;;;;;;;6247394;28;20393;-66
2022/03/18 08:48:21;;;;;;;15.95;9.38;;;;;;;;;;6247381;28;20075;-66
2022/03/18 08:51:21;;;;;;;17.92;10.13;;;;;;;;;;6247554;28;20017;-66
2022/03/18 08:54:22;;;;;;;20.02;9.32;;;;;;;;;;6247516;28;20410;-66
2022/03/18 08:57:22;;;;;;;21.38;9.18;;;;;;;;;;6248506;28;20402;-66
2022/03/18 09:00:22;;;;;;;15.82;9.25;;;;;;;;;;6239586;28;20024;-66
2022/03/18 09:03:22;;;;;;;16.65;9.80;;;;;;;;;;6243852;28;20067;-66
2022/03/18 09:06:23;;;;;;;20.33;10.70;;;;;;;;;;6236791;28;20045;-66
2022/03/18 09:09:23;;;;;;;14.07;8.73;;;;;;;;;;6236728;28;20507;-66
2022/03/18 09:12:24;;;;;;;21.33;9.43;;;;;;;;;;6238801;28;20021;-66
2022/03/18 09:15:25;;;;;;;17.98;9.30;;;;;;;;;;6245611;28;20100;-66
2022/03/18 09:18:25;;;;;;;16.73;8.47;;;;;;;;;;6241621;28;20049;-66
2022/03/18 09:21:25;;;;;;;18.30;8.57;;;;;;;;;;6244088;28;20018;-66
2022/03/18 09:24:26;;;;;;;22.58;12.63;;;;;;;;;;6229921;28;20311;-66
2022/03/18 09:27:26;;;;;;;22.42;11.52;;;;;;;;;;6233068;28;20033;-66
2022/03/18 09:30:26;;;;;;;17.70;8.48;;;;;;;;;;6224292;28;20503;-66
2022/03/18 09:33:26;;;;;;;21.42;11.57;;;;;;;;;;6233026;28;20030;-66
2022/03/18 09:36:27;;;;;;;15.63;7.88;;;;;;;;;;6221631;28;20077;-66
2022/03/18 09:39:27;;;;;;;19.42;10.38;;;;;;;;;;6238789;28;20041;-66
2022/03/18 09:42:27;;;;;;;19.30;10.02;;;;;;;;;;6244132;28;20048;-66
2022/03/18 09:45:30;;;;;;;19.15;8.85;;;;;;;;;;6243943;28;20419;-66
2022/03/18 09:48:31;;;;;;;18.30;10.13;;;;;;;;;;6240061;28;20133;-66
2022/03/18 09:51:32;;;;;;;22.15;11.23;;;;;;;;;;6242081;28;20433;-66
2022/03/18 09:54:32;;;;;;;21.00;9.32;;;;;;;;;;6226012;28;20054;-66
2022/03/18 09:57:33;;;;;;;17.77;8.68;;;;;;;;;;6239943;28;20026;-66
2022/03/18 10:00:33;;;;;;;18.30;8.98;;;;;;;;;;6234417;28;20021;-66
2022/03/18 10:03:38;;;;;;;16.98;9.07;;;;;;;;;;6224834;28;20026;-66
2022/03/18 10:06:41;;;;;;;19.45;8.98;;;;;;;;;;6220095;28;20238;-66
2022/03/18 10:09:41;;;;;;;18.88;9.95;;;;;;;;;;6220353;28;20026;-66
2022/03/18 10:12:44;;;;;;;16.85;8.70;;;;;;;;;;6243004;28;20029;-66
2022/03/18 10:15:45;;;;;;;22.10;10.02;;;;;;;;;;6245308;28;20280;-67
2022/03/18 10:18:49;;;;;;;16.00;8.25;;;;;;;;;;6244686;28;20017;-67
2022/03/18 10:21:50;;;;;;;15.55;8.55;;;;;;;;;;6245429;28;20243;-67
2022/03/18 10:24:50;;;;;;;18.45;9.20;;;;;;;;;;6243631;28;20087;-67
2022/03/18 10:27:50;;;;;;;16.75;8.40;;;;;;;;;;6244193;28;20017;-67
2022/03/18 10:30:51;;;;;;;29.52;14.18;;;;;;;;;;6239292;28;20463;-67
2022/03/18 10:37:15;;;;;;;17.40;9.57;;;;;;;;;;6229834;28;20025;-67
2022/03/18 10:40:31;;;;;;;32.75;18.25;;;;;;;;;;6241489;28;20032;-66
2022/03/18 10:43:49;;;;;;;20.80;10.23;;;;;;;;;;6244187;28;20024;-66
2022/03/18 10:46:50;;;;;;;14.93;8.07;;;;;;;;;;6243997;28;20625;-66
2022/03/18 10:49:50;;;;;;;23.13;11.80;;;;;;;;;;6244505;28;20023;-66
2022/03/18 10:52:53;;;;;;;40.78;20.75;;;;;;;;;;6234858;28;20041;-67
2022/03/18 10:55:58;;;;;;;14.70;8.38;;;;;;;;;;6241809;28;20013;-66
2022/03/18 10:58:59;;;;;;;15.93;8.68;;;;;;;;;;6243098;28;20020;-66
2022/03/18 11:02:00;;;;;;;14.30;7.50;;;;;;;;;;6244056;28;20092;-67
2022/03/18 11:05:00;;;;;;;13.47;7.10;;;;;;;;;;6238849;28;20474;-67
2022/03/18 11:08:01;;;;;;;13.68;6.65;;;;;;;;;;6230114;28;20021;-67
2022/03/18 11:11:18;;;;;;;18.48;8.13;;;;;;;;;;6237136;28;20025;-67
2022/03/18 11:14:20;;;;;;;20.38;12.07;;;;;;;;;;6233127;28;20013;-67
2022/03/18 11:17:21;;;;;;;82.75;48.30;;;;;;;;;;6233506;28;20024;-66
2022/03/18 11:20:24;;;;;;;31.15;18.08;;;;;;;;;;6236858;28;20389;-66
2022/03/18 11:23:25;;;;;;;24.48;12.52;;;;;;;;;;6237524;28;20021;-66
2022/03/18 11:26:26;;;;;;;15.23;7.88;;;;;;;;;;6252865;28;20053;-66
2022/03/18 11:29:28;;;;;;;17.65;8.68;;;;;;;;;;6236766;28;20013;-66
2022/03/18 11:32:29;;;;;;;19.70;10.83;;;;;;;;;;6235224;28;20027;-66
2022/03/18 11:35:49;;;;;;;25.00;12.88;;;;;;;;;;6236267;28;20025;-66
2022/03/18 11:39:02;;;;;;;12.15;7.30;;;;;;;;;;6217510;28;20025;-67
2022/03/18 11:42:08;;;;;;;24.77;13.15;;;;;;;;;;6224860;28;20044;-67
2022/03/18 11:45:09;;;;;;;15.82;7.43;;;;;;;;;;6238224;28;20480;-67
2022/03/18 11:48:28;;;;;;;13.03;6.13;;;;;;;;;;6241036;28;20389;-67
2022/03/18 11:51:33;;;;;;;16.63;7.75;;;;;;;;;;6238903;28;20013;-67
2022/03/18 11:54:48;;;;;;;13.80;7.28;;;;;;;;;;6235241;28;20051;-67
2022/03/18 11:57:48;;;;;;;20.02;9.43;;;;;;;;;;6241787;28;20025;-67
2022/03/18 12:00:49;;;;;;;13.05;7.15;;;;;;;;;;6236285;28;20044;-67
2022/03/18 12:03:54;;;;;;;18.63;9.30;;;;;;;;;;6218440;28;20021;-67
2022/03/18 12:07:14;;;;;;;13.63;8.10;;;;;;;;;;6233668;28;20049;-67
2022/03/18 12:10:30;;;;;;;11.82;7.20;;;;;;;;;;6228077;28;20033;-67
2022/03/18 12:13:31;;;;;;;14.30;7.70;;;;;;;;;;6220171;28;20362;-67
2022/03/18 12:16:31;;;;;;;15.27;7.93;;;;;;;;;;6241828;28;20026;-67
2022/03/18 12:19:31;;;;;;;12.55;7.55;;;;;;;;;;6239058;28;20083;-67
2022/03/18 12:22:36;;;;;;;13.18;6.90;;;;;;;;;;6241515;28;20057;-67
2022/03/18 12:25:36;;;;;;;12.73;7.25;;;;;;;;;;6239848;28;20064;-67
2022/03/18 12:28:43;;;;;;;14.07;6.65;;;;;;;;;;6222911;28;20025;-67
2022/03/18 12:31:44;;;;;;;14.20;7.85;;;;;;;;;;6230391;28;20068;-67
2022/03/18 12:34:49;;;;;;;31.67;15.70;;;;;;;;;;6221804;28;20052;-67
2022/03/18 12:38:01;;;;;;;13.45;6.82;;;;;;;;;;6224288;28;20033;-67
2022/03/18 12:41:01;;;;;;;;;;;;;;;;;;6242110;28;20393;-66
2022/03/18 12:44:02;;;;;;;14.20;7.18;;;;;;;;;;6246545;28;20362;-66
2022/03/18 12:47:05;;;;;;;26.98;14.77;;;;;;;;;;6236714;28;20071;-66
2022/03/18 12:50:05;;;;;;;9.50;6.30;;;;;;;;;;6240259;28;20032;-66
2022/03/18 12:53:10;;;;;;;10.00;5.78;;;;;;;;;;6239169;28;20045;-66
2022/03/18 12:56:16;;;;;;;11.90;6.75;;;;;;;;;;6241720;28;20105;-66
2022/03/18 12:59:17;;;;;;;11.07;5.90;;;;;;;;;;6240175;28;20036;-66
2022/03/18 13:02:17;;;;;;;11.20;5.77;;;;;;;;;;6241015;28;20033;-66
2022/03/18 13:05:19;;;;;;;13.80;5.90;;;;;;;;;;6222896;28;20022;-66
2022/03/18 13:08:20;;;;;;;12.48;6.78;;;;;;;;;;6240449;28;20076;-66
2022/03/18 13:11:21;;;;;;;14.02;5.68;;;;;;;;;;6240214;28;20419;-66
2022/03/18 13:14:28;;;;;;;14.23;8.27;;;;;;;;;;6240247;28;20033;-66
2022/03/18 13:17:32;;;;;;;10.82;6.50;;;;;;;;;;6241765;28;20519;-66
2022/03/18 13:20:34;;;;;;;10.98;6.13;;;;;;;;;;6244811;28;20381;-66
2022/03/18 13:23:35;;;;;;;13.88;6.20;;;;;;;;;;6231437;28;20041;-66
2022/03/18 13:26:35;;;;;;;20.52;10.13;;;;;;;;;;6237570;28;20044;-66
2022/03/18 13:32:56;;;;;;;13.85;6.50;;;;;;;;;;6241578;28;20313;-66
2022/03/18 13:35:58;;;;;;;14.15;6.22;;;;;;;;;;6225073;28;20076;-66
2022/03/18 13:39:02;;;;;;;16.23;6.68;;;;;;;;;;6218813;28;20448;-67
2022/03/18 13:42:04;;;;;;;12.13;7.43;;;;;;;;;;6201515;28;20341;-67
2022/03/18 13:45:04;;;;;;;12.57;6.47;;;;;;;;;;6223000;28;20010;-67
2022/03/18 13:48:05;;;;;;;14.15;6.82;;;;;;;;;;6225193;28;20092;-67
2022/03/18 13:51:06;;;;;;;13.70;6.28;;;;;;;;;;6240998;28;20010;-67
2022/03/18 13:54:10;;;;;;;14.60;8.02;;;;;;;;;;6238916;28;20050;-67
2022/03/18 13:57:11;;;;;;;12.70;6.75;;;;;;;;;;6239918;28;20385;-67
2022/03/18 14:00:12;;;;;;;16.90;7.10;;;;;;;;;;6228377;28;20049;-67
2022/03/18 14:03:15;;;;;;;16.77;7.53;;;;;;;;;;6223061;28;20028;-67
2022/03/18 14:06:15;;;;;;;34.63;17.13;;;;;;;;;;6220444;28;20027;-67
2022/03/18 14:09:15;;;;;;;12.63;7.10;;;;;;;;;;6219875;28;20029;-67
2022/03/18 14:12:16;;;;;;;11.95;7.03;;;;;;;;;;6226553;28;20029;-67
2022/03/18 14:15:18;;;;;;;16.03;7.10;;;;;;;;;;6219473;28;20061;-67
2022/03/18 14:18:19;;;;;;;12.80;6.97;;;;;;;;;;6219477;28;20030;-67
2022/03/18 14:21:20;;;;;;;11.88;6.30;;;;;;;;;;6233300;28;20024;-67
2022/03/18 14:24:20;;;;;;;10.25;5.40;;;;;;;;;;6235681;28;20362;-67
2022/03/18 14:27:21;;;;;;;11.43;6.90;;;;;;;;;;6217619;28;20017;-67
2022/03/18 14:30:23;;;;;;;10.93;6.33;;;;;;;;;;6230312;28;20044;-67
2022/03/18 14:33:26;;;;;;;12.55;7.00;;;;;;;;;;6242710;28;20005;-67
2022/03/18 14:36:26;;;;;;;11.70;6.18;;;;;;;;;;6243277;28;20024;-67
2022/03/18 14:39:27;;;;;;;11.90;7.07;;;;;;;;;;6234180;28;20025;-67
2022/03/18 14:42:27;;;;;;;12.33;6.93;;;;;;;;;;6233674;28;20021;-67
2022/03/18 14:45:27;;;;;;;11.57;6.20;;;;;;;;;;6223355;28;20101;-67
2022/03/18 14:48:28;;;;;;;9.70;5.30;;;;;;;;;;6230810;28;20367;-67
2022/03/18 14:51:30;;;;;;;14.73;7.13;;;;;;;;;;6231629;28;20057;-67
2022/03/18 14:57:49;;;;;;;10.25;6.20;;;;;;;;;;6220903;28;20224;-67
2022/03/18 15:00:51;;;;;;;14.00;7.07;;;;;;;;;;6227369;28;20023;-67
2022/03/18 15:03:52;;;;;;;10.80;6.85;;;;;;;;;;6231034;28;20080;-67
2022/03/18 15:06:52;;;;;;;13.95;7.60;;;;;;;;;;6218104;28;20022;-67
2022/03/18 15:09:52;;;;;;;21.53;11.70;;;;;;;;;;6224345;28;20165;-67
2022/03/18 15:12:53;;;;;;;18.60;10.67;;;;;;;;;;6241745;28;20551;-67
2022/03/18 15:15:53;;;;;;;16.43;10.70;;;;;;;;;;6241925;28;20017;-67
2022/03/18 15:18:54;;;;;;;16.73;10.03;;;;;;;;;;6231210;28;20473;-67
2022/03/18 15:21:55;;;;;;;22.57;10.67;;;;;;;;;;6219787;28;20022;-67
2022/03/18 15:24:55;;;;;;;12.20;7.85;;;;;;;;;;6238186;28;20036;-67
2022/03/18 15:27:56;;;;;;;12.83;7.17;;;;;;;;;;6238966;28;20026;-67
2022/03/18 15:30:56;;;;;;;26.17;17.40;;;;;;;;;;6242039;28;20090;-67
2022/03/18 15:33:57;;;;;;;19.80;11.80;;;;;;;;;;6243219;28;20024;-67
2022/03/18 15:36:58;;;;;;;152.40;96.15;;;;;;;;;;6245157;28;20499;-67
2022/03/18 15:39:58;;;;;;;63.17;35.77;;;;;;;;;;6222449;28;20108;-67
2022/03/18 15:43:00;;;;;;;74.90;44.43;;;;;;;;;;6240880;28;20055;-67
2022/03/18 15:46:01;;;;;;;67.53;41.85;;;;;;;;;;6242495;28;20017;-67
2022/03/18 15:49:02;;;;;;;102.10;69.90;;;;;;;;;;6241806;28;20028;-67
2022/03/18 15:52:04;;;;;;;112.00;72.00;;;;;;;;;;6242253;28;20017;-67
2022/03/18 15:55:07;;;;;;;76.90;45.08;;;;;;;;;;6241794;28;20013;-67
2022/03/18 15:58:07;;;;;;;82.00;46.53;;;;;;;;;;6247363;28;20104;-66
2022/03/18 16:01:08;;;;;;;61.93;34.33;;;;;;;;;;6241947;28;20457;-66
2022/03/18 16:04:09;;;;;;;94.80;49.75;;;;;;;;;;6239429;28;20026;-67
2022/03/18 16:07:09;;;;;;;93.70;57.17;;;;;;;;;;6220427;28;20025;-66
2022/03/18 16:10:09;;;;;;;56.77;32.83;;;;;;;;;;6220899;28;20120;-67
2022/03/18 16:13:10;;;;;;;23.30;12.90;;;;;;;;;;6215761;28;20077;-66
2022/03/18 16:16:13;;;;;;;22.63;14.67;;;;;;;;;;6216061;28;20049;-66
2022/03/18 16:19:13;;;;;;;16.42;9.02;;;;;;;;;;6217567;28;20076;-66
2022/03/18 16:22:29;;;;;;;19.45;9.77;;;;;;;;;;6217378;28;20461;-67
2022/03/18 16:25:30;;;;;;;13.95;8.13;;;;;;;;;;6218976;28;20550;-67
2022/03/18 16:28:30;;;;;;;21.23;9.57;;;;;;;;;;6220060;28;20029;-66
2022/03/18 16:31:30;;;;;;;17.90;9.23;;;;;;;;;;6233095;28;20548;-66
2022/03/18 16:34:31;;;;;;;20.75;10.27;;;;;;;;;;6229117;28;20021;-66
2022/03/18 16:37:32;;;;;;;20.95;10.90;;;;;;;;;;6229688;28;20040;-66
2022/03/18 16:40:33;;;;;;;17.27;9.70;;;;;;;;;;6226911;28;20480;-66
2022/03/18 16:43:34;;;;;;;20.35;9.45;;;;;;;;;;6235348;28;20029;-66
2022/03/18 16:49:56;;;;;;;;;;;;;;;;;;6230105;28;20030;-66
2022/03/18 16:53:04;;;;;;;23.25;10.40;;;;;;;;;;6223187;28;19928;-65
2022/03/18 16:56:05;;;;;;;25.88;12.23;;;;;;;;;;6242636;28;20129;-66
2022/03/18 16:59:05;;;;;;;30.55;10.48;;;;;;;;;;6245125;28;20026;-66
2022/03/18 17:02:06;;;;;;;23.30;11.48;;;;;;;;;;6245783;28;20080;-65
2022/03/18 17:05:06;;;;;;;19.40;11.30;;;;;;;;;;6245249;28;20488;-66
2022/03/18 17:08:06;;;;;;;23.65;10.45;;;;;;;;;;6245393;28;20029;-66
2022/03/18 17:11:07;;;;;;;27.17;11.73;;;;;;;;;;6245123;28;20104;-66
2022/03/18 17:14:07;;;;;;;30.85;12.40;;;;;;;;;;6243564;28;20079;-66
2022/03/18 17:17:07;;;;;;;46.10;19.83;;;;;;;;;;6245232;28;20024;-66
2022/03/18 17:20:09;;;;;;;48.97;22.35;;;;;;;;;;6243873;28;20033;-66
2022/03/18 17:23:10;;;;;;;40.92;20.27;;;;;;;;;;6240592;28;20014;-66
2022/03/18 17:26:11;;;;;;;45.03;21.42;;;;;;;;;;6225627;28;20104;-66
2022/03/18 17:29:12;;;;;;;45.55;24.35;;;;;;;;;;6243081;28;20028;-66
2022/03/18 17:32:12;;;;;;;37.45;16.98;;;;;;;;;;6244282;28;20040;-66
2022/03/18 17:35:13;;;;;;;46.83;20.67;;;;;;;;;;6225772;28;20022;-66
2022/03/18 17:38:13;;;;;;;45.95;25.52;;;;;;;;;;6231925;28;20029;-66
2022/03/18 17:41:14;;;;;;;70.10;37.28;;;;;;;;;;6226731;28;20350;-66
2022/03/18 17:44:16;;;;;;;74.57;35.00;;;;;;;;;;6230268;28;20017;-66
2022/03/18 17:47:16;;;;;;;62.35;35.17;;;;;;;;;;6231568;28;20516;-66
2022/03/18 17:50:16;;;;;;;73.45;37.00;;;;;;;;;;6238448;28;20013;-66
2022/03/18 17:53:17;;;;;;;102.65;53.25;;;;;;;;;;6244016;28;20397;-66
2022/03/18 17:56:17;;;;;;;73.68;39.03;;;;;;;;;;6243004;28;20076;-66
2022/03/18 17:59:18;;;;;;;65.80;36.83;;;;;;;;;;6243633;28;20021;-66
2022/03/18 18:02:18;;;;;;;79.75;40.08;;;;;;;;;;6244357;28;20137;-66
2022/03/18 18:05:19;;;;;;;71.70;35.38;;;;;;;;;;6222524;28;20022;-66
2022/03/18 18:08:19;;;;;;;66.90;33.45;;;;;;;;;;6232132;28;20471;-66
2022/03/18 18:11:19;;;;;;;60.47;32.75;;;;;;;;;;6230620;28;20105;-66
2022/03/18 18:14:19;;;;;;;72.32;33.90;;;;;;;;;;6235586;28;20022;-66
2022/03/18 18:17:20;;;;;;;67.57;35.47;;;;;;;;;;6245723;28;20027;-66
2022/03/18 18:23:39;;;;;;;70.63;33.25;;;;;;;;;;6244516;28;20017;-65